Terminal Aerodrome Forecast
Issued by NWS

Home | Current Version | Previous Version | Text Only | Print | Product List | Glossary On
Versions: 1 2 3 4 5 6 7 8 9 10 11 12 13 14 15 16 17 18 19 20
000
FTUS43 KGRB 281125
TAFCWA
TAF
KCWA 281125Z 2812/2912 VRB03KT P6SM SCT250
      TEMPO 2812/2813 2SM BR
     FM281500 20008KT P6SM SCT070
     FM281900 18012G20KT P6SM SCT060
     FM290100 15005KT P6SM SCT200
     FM290700 15005KT P6SM SCT050 BKN080=

USA.gov is the U.S. government's official web portal to all federal, state and local government web resources and services.